Terminal Aerodrome Forecast
Issued by NWS

Home | Current Version | Previous Version | Text Only | Print | Product List | Glossary On
Versions: 1 2 3 4 5 6 7 8 9 10 11 12 13 14 15 16 17
226
FTUS41 KBGM 250851 AAA
TAFELM
TAF AMD
KELM 250851Z 2509/2606 VRB02KT P6SM SCT045
      TEMPO 2511/2513 2SM BR FEW045
     FM251300 01005KT P6SM SKC
     FM260000 VRB03KT P6SM FEW200=

USA.gov is the U.S. government's official web portal to all federal, state and local government web resources and services.